Time;durP1;ratioP1;P1;durP2;ratioP2;P2;SDS_P1;SDS_P2;PMS_P1;PMS_P2;Temp;Humidity;BMP_temperature;BMP_pressure;BME280_temperature;BME280_humidity;BME280_pressure;Samples;Min_cycle;Max_cycle;Signal;HPM_P1;HPM_P2
2022/06/16 00:01:08;;;;;;;8.95;5.43;;;18.70;99.90;;;;;;4960426;28;20035;-87
2022/06/16 00:03:34;;;;;;;15.52;6.45;;;18.70;99.90;;;;;;4959223;28;20039;-87
2022/06/16 00:05:59;;;;;;;8.75;5.72;;;18.60;99.90;;;;;;4955031;28;20036;-86
2022/06/16 00:08:25;;;;;;;12.45;6.10;;;18.60;99.90;;;;;;4954683;28;20024;-86
2022/06/16 00:13:38;;;;;;;8.93;5.25;;;18.60;99.90;;;;;;4958869;28;20047;-88
2022/06/16 00:16:06;;;;;;;13.32;5.90;;;18.50;99.90;;;;;;4941913;29;20032;-89
2022/06/16 00:18:32;;;;;;;11.23;5.95;;;18.60;99.90;;;;;;4957974;28;20497;-89
2022/06/16 00:20:58;;;;;;;10.50;5.88;;;18.50;99.90;;;;;;4950414;28;20040;-90
2022/06/16 00:23:24;;;;;;;13.50;6.25;;;18.50;99.90;;;;;;4947498;29;20123;-89
2022/06/16 00:25:49;;;;;;;9.48;5.75;;;18.40;99.90;;;;;;4945884;29;20283;-88
2022/06/16 00:28:15;;;;;;;11.27;6.18;;;18.40;99.90;;;;;;4945632;29;20510;-89
2022/06/16 00:30:42;;;;;;;15.25;6.88;;;18.30;99.90;;;;;;4954727;29;20159;-90
2022/06/16 00:33:09;;;;;;;7.93;6.32;;;18.30;99.90;;;;;;4954806;29;20046;-87
2022/06/16 00:35:35;;;;;;;11.57;6.07;;;18.30;99.90;;;;;;4956439;29;20012;-88
2022/06/16 00:38:01;;;;;;;12.52;6.10;;;18.20;99.90;;;;;;4955919;29;20111;-88
2022/06/16 00:40:27;;;;;;;11.52;6.78;;;18.20;99.90;;;;;;4957030;29;20039;-90
2022/06/16 00:42:53;;;;;;;11.48;7.22;;;18.20;99.90;;;;;;4960324;28;20036;-87
2022/06/16 00:45:44;;;;;;;10.73;6.55;;;18.10;99.90;;;;;;4943856;28;20015;-88
2022/06/16 00:48:16;;;;;;;14.95;7.18;;;18.10;99.90;;;;;;4959545;28;20027;-89
2022/06/16 00:50:44;;;;;;;14.65;6.53;;;18.10;99.90;;;;;;4960483;28;20036;-88
2022/06/16 00:53:10;;;;;;;12.45;6.78;;;18.10;99.90;;;;;;4959874;28;20056;-88
2022/06/16 00:55:36;;;;;;;9.93;6.53;;;18.10;99.90;;;;;;4960040;28;20076;-88
2022/06/16 00:58:05;;;;;;;17.85;7.47;;;18.10;99.90;;;;;;4942646;29;20036;-87
2022/06/16 01:00:35;;;;;;;12.55;6.07;;;18.10;99.90;;;;;;4942284;29;20027;-87
2022/06/16 01:03:01;;;;;;;16.70;6.93;;;18.10;99.90;;;;;;4946292;29;20050;-91
2022/06/16 01:05:27;;;;;;;15.80;6.63;;;18.10;99.90;;;;;;4944425;29;20476;-88
2022/06/16 01:07:55;;;;;;;14.75;6.78;;;18.10;99.90;;;;;;4942757;29;20042;-89
2022/06/16 01:10:21;;;;;;;13.65;6.50;;;18.10;99.90;;;;;;4942469;29;20106;-88
2022/06/16 01:16:28;;;;;;;12.05;6.50;;;18.00;99.90;;;;;;4948547;29;20106;-90
2022/06/16 01:19:11;;;;;;;11.60;6.85;;;17.90;99.90;;;;;;4947182;29;20023;-90
2022/06/16 01:21:53;;;;;;;13.07;6.72;;;17.90;99.90;;;;;;4957256;29;20039;-89
2022/06/16 01:24:40;;;;;;;11.88;7.00;;;17.90;99.90;;;;;;4958202;28;20039;-88
2022/06/16 01:27:36;;;;;;;10.82;6.95;;;17.80;99.90;;;;;;4960004;28;20024;-86
2022/06/16 01:30:08;;;;;;;15.13;7.05;;;17.80;99.90;;;;;;4933035;28;20067;-87
2022/06/16 01:32:49;;;;;;;13.10;6.75;;;17.80;99.90;;;;;;4962998;28;20028;-87
2022/06/16 01:35:26;;;;;;;13.10;6.80;;;17.80;99.90;;;;;;4962768;28;20095;-88
2022/06/16 01:38:06;;;;;;;13.32;6.65;;;17.70;99.90;;;;;;4956514;28;20039;-89
2022/06/16 01:40:43;;;;;;;15.93;7.15;;;17.70;99.90;;;;;;4953487;29;20044;-89
2022/06/16 01:43:17;;;;;;;12.55;7.22;;;17.70;99.90;;;;;;4950228;29;20039;-90
2022/06/16 01:46:23;;;;;;;10.23;7.28;;;17.70;99.90;;;;;;4952414;29;20072;-89
2022/06/16 01:49:10;;;;;;;13.20;7.05;;;17.70;99.90;;;;;;4952232;29;20067;-90
2022/06/16 01:51:40;;;;;;;;;;;17.70;99.90;;;;;;4948668;29;20028;-87
2022/06/16 01:54:15;;;;;;;16.23;7.25;;;17.70;99.90;;;;;;4931843;29;19910;-89
2022/06/16 01:57:02;;;;;;;12.13;7.32;;;17.60;99.90;;;;;;4953924;29;20039;-89
2022/06/16 01:59:40;;;;;;;18.80;7.25;;;17.60;99.90;;;;;;4949965;29;20038;-90
2022/06/16 02:02:12;;;;;;;13.48;6.95;;;17.50;99.90;;;;;;4954557;29;20022;-90
2022/06/16 02:04:42;;;;;;;15.52;7.82;;;17.50;99.90;;;;;;4956512;29;20107;-89
2022/06/16 02:07:16;;;;;;;12.32;7.05;;;17.40;99.90;;;;;;4955605;28;20020;-86
2022/06/16 02:09:47;;;;;;;11.30;7.05;;;17.40;99.90;;;;;;4962155;28;20052;-88
2022/06/16 02:12:55;;;;;;;11.63;7.18;;;17.40;99.90;;;;;;4961892;28;20035;-89
2022/06/16 02:15:13;;;;;;;13.07;6.70;;;17.40;99.90;;;;;;4949374;29;20056;-87
2022/06/16 02:17:55;;;;;;;12.40;7.32;;;17.50;99.90;;;;;;4947636;29;20088;-87
2022/06/16 02:20:24;;;;;;;13.23;7.03;;;17.50;99.90;;;;;;4946898;29;20046;-89
2022/06/16 02:22:50;;;;;;;9.50;7.03;;;17.50;99.90;;;;;;4946199;29;20030;-89
2022/06/16 02:25:15;;;;;;;16.02;7.18;;;17.50;99.90;;;;;;4946455;29;20012;-90
2022/06/16 02:27:43;;;;;;;13.43;7.35;;;17.40;99.90;;;;;;4929873;29;20034;-89
2022/06/16 02:30:10;;;;;;;19.10;7.93;;;17.50;99.90;;;;;;4944223;29;20032;-89
2022/06/16 02:32:59;;;;;;;14.45;7.78;;;17.40;99.90;;;;;;4928387;29;20031;-89
2022/06/16 02:35:42;;;;;;;15.32;7.13;;;17.40;99.90;;;;;;4946715;29;20118;-89
2022/06/16 02:38:08;;;;;;;14.80;7.13;;;17.30;99.90;;;;;;4955631;28;20078;-88
2022/06/16 02:40:49;;;;;;;14.43;7.43;;;17.30;99.90;;;;;;4945239;28;20024;-86
2022/06/16 02:43:27;;;;;;;12.07;7.57;;;17.20;99.90;;;;;;4961405;28;20031;-84
2022/06/16 02:46:03;;;;;;;16.83;8.27;;;17.20;99.90;;;;;;4961736;28;20027;-87
2022/06/16 02:48:51;;;;;;;11.85;7.18;;;17.20;99.90;;;;;;4959572;28;20024;-88
2022/06/16 02:51:57;;;;;;;14.48;7.63;;;17.20;99.90;;;;;;4950487;29;20059;-89
2022/06/16 02:54:41;;;;;;;12.75;7.78;;;17.20;99.90;;;;;;4949407;29;20039;-88
2022/06/16 02:57:18;;;;;;;13.93;7.88;;;17.20;99.90;;;;;;4959823;28;20027;-86
2022/06/16 02:59:48;;;;;;;19.30;7.15;;;17.10;99.90;;;;;;4944207;29;20066;-88
2022/06/16 03:02:19;;;;;;;12.75;8.70;;;17.10;99.90;;;;;;4969408;28;20015;-86
2022/06/16 03:04:53;;;;;;;13.75;8.63;;;17.00;99.90;;;;;;4960749;28;20082;-86
2022/06/16 03:07:21;;;;;;;12.07;7.90;;;17.00;99.90;;;;;;4960925;28;20034;-86
2022/06/16 03:09:57;;;;;;;12.80;7.95;;;17.00;99.90;;;;;;4960130;28;20044;-84
2022/06/16 03:12:23;;;;;;;18.63;8.60;;;17.00;99.90;;;;;;4961594;28;20031;-86
2022/06/16 03:14:49;;;;;;;16.23;8.70;;;16.90;99.90;;;;;;4945182;28;20043;-86
2022/06/16 03:17:15;;;;;;;16.63;8.80;;;17.00;99.90;;;;;;4964881;23;20071;-81
2022/06/16 03:19:41;;;;;;;16.63;7.93;;;17.00;99.90;;;;;;4943698;29;20120;-81
2022/06/16 03:22:07;;;;;;;15.85;7.90;;;17.10;99.90;;;;;;4948565;29;20038;-82
2022/06/16 03:24:33;;;;;;;13.60;7.95;;;17.10;99.90;;;;;;4952079;29;20059;-81
2022/06/16 03:26:59;;;;;;;16.58;8.73;;;17.10;99.90;;;;;;4952658;29;20039;-78
2022/06/16 03:29:32;;;;;;;15.77;8.60;;;17.20;99.90;;;;;;4954193;29;20031;-80
2022/06/16 03:32:00;;;;;;;15.10;8.23;;;17.20;99.90;;;;;;4952732;29;20027;-80
2022/06/16 03:34:26;;;;;;;16.25;8.38;;;17.20;99.90;;;;;;4951906;29;20027;-81
2022/06/16 03:36:54;;;;;;;18.50;8.80;;;17.20;99.90;;;;;;4945786;29;20050;-79
2022/06/16 03:39:33;;;;;;;15.70;8.65;;;17.20;99.90;;;;;;4946155;29;20051;-81
2022/06/16 03:41:59;;;;;;;16.70;8.70;;;17.20;99.90;;;;;;4945752;29;20079;-81
2022/06/16 03:44:24;;;;;;;12.35;7.90;;;17.30;99.90;;;;;;4947339;29;20066;-80
2022/06/16 03:46:50;;;;;;;12.50;8.27;;;17.30;99.90;;;;;;4946160;29;20027;-80
2022/06/16 03:49:25;;;;;;;11.82;7.97;;;17.30;99.90;;;;;;4943049;29;20028;-82
2022/06/16 03:51:51;;;;;;;16.35;8.30;;;17.30;99.90;;;;;;4944297;29;20031;-80
2022/06/16 03:54:28;;;;;;;13.35;8.35;;;17.40;99.90;;;;;;4932135;29;20066;-80
2022/06/16 03:57:02;;;;;;;10.80;7.45;;;17.30;99.90;;;;;;4944836;29;20031;-81
2022/06/16 03:59:28;;;;;;;11.70;7.95;;;17.40;99.90;;;;;;4944452;29;20035;-81
2022/06/16 04:01:59;;;;;;;13.35;7.88;;;17.40;99.90;;;;;;4945126;29;20051;-80
2022/06/16 04:04:30;;;;;;;14.35;8.30;;;17.50;99.90;;;;;;4946371;29;20633;-81
2022/06/16 04:06:58;;;;;;;13.18;7.30;;;17.50;99.90;;;;;;4944999;29;20027;-81
2022/06/16 04:09:25;;;;;;;20.52;8.02;;;17.50;99.90;;;;;;4927998;29;20067;-80
2022/06/16 04:11:52;;;;;;;13.30;7.82;;;17.50;99.90;;;;;;4940193;29;20028;-83
2022/06/16 04:14:18;;;;;;;10.45;7.97;;;17.60;99.90;;;;;;4945150;29;20095;-80
2022/06/16 04:16:58;;;;;;;12.10;7.20;;;17.60;99.90;;;;;;4940600;29;20067;-80
2022/06/16 04:20:11;;;;;;;12.10;7.32;;;17.70;99.90;;;;;;4944603;29;20036;-80
2022/06/16 04:22:30;;;;;;;11.57;7.28;;;17.80;99.90;;;;;;4944961;29;20039;-82
2022/06/16 04:25:08;;;;;;;13.05;6.88;;;17.90;99.90;;;;;;4943396;29;20036;-81
2022/06/16 04:27:34;;;;;;;14.23;7.35;;;17.90;99.90;;;;;;4940752;29;20051;-81
2022/06/16 04:30:06;;;;;;;10.50;6.63;;;17.90;99.90;;;;;;4940030;29;20075;-81
2022/06/16 04:32:32;;;;;;;12.73;6.30;;;18.00;99.90;;;;;;4939628;29;20028;-81
2022/06/16 04:34:57;;;;;;;12.15;6.78;;;18.00;99.90;;;;;;4942451;29;20028;-81
2022/06/16 04:37:27;;;;;;;12.43;7.55;;;18.00;99.90;;;;;;4942348;29;20122;-82
2022/06/16 04:39:55;;;;;;;11.93;6.88;;;18.10;99.90;;;;;;4944878;29;20082;-79
2022/06/16 04:42:24;;;;;;;17.55;7.63;;;18.10;99.90;;;;;;4957374;28;20059;-80
2022/06/16 04:44:49;;;;;;;13.05;7.22;;;18.10;99.90;;;;;;4939707;29;20039;-79
2022/06/16 04:47:17;;;;;;;14.70;6.50;;;18.20;99.90;;;;;;4955327;28;20028;-81
2022/06/16 04:49:48;;;;;;;10.90;6.85;;;18.30;99.90;;;;;;4942864;29;20500;-81
2022/06/16 04:52:17;;;;;;;14.43;7.28;;;18.60;99.90;;;;;;4939908;29;20035;-81
2022/06/16 04:54:48;;;;;;;12.30;6.65;;;19.20;99.90;;;;;;4939760;29;20520;-80
2022/06/16 04:57:34;;;;;;;10.20;5.97;;;19.70;99.90;;;;;;4941299;29;20042;-81
2022/06/16 05:00:29;;;;;;;16.17;7.05;;;19.70;99.90;;;;;;4887808;29;20066;-80
2022/06/16 05:03:17;;;;;;;13.32;6.93;;;19.40;99.90;;;;;;4935550;29;20040;-80
2022/06/16 05:06:12;;;;;;;15.35;6.47;;;19.30;99.90;;;;;;4915041;29;20024;-81
2022/06/16 05:08:52;;;;;;;12.98;7.15;;;19.10;99.90;;;;;;4938686;29;20036;-83
2022/06/16 05:11:47;;;;;;;10.48;6.97;;;19.00;99.90;;;;;;4894224;29;20052;-82
2022/06/16 05:14:39;;;;;;;15.05;7.35;;;19.00;99.90;;;;;;4934383;29;20020;-82
2022/06/16 05:17:31;;;;;;;14.48;7.45;;;19.00;99.90;;;;;;4942584;29;20050;-82
2022/06/16 05:20:16;;;;;;;17.05;7.65;;;19.00;99.90;;;;;;4938628;29;20425;-83
2022/06/16 05:23:05;;;;;;;13.07;7.15;;;19.20;99.90;;;;;;4910989;29;20036;-83
2022/06/16 05:25:53;;;;;;;14.80;6.75;;;19.10;99.90;;;;;;4920680;29;20031;-82
2022/06/16 05:28:24;;;;;;;10.23;7.18;;;19.20;99.90;;;;;;4933447;29;20028;-82
2022/06/16 05:31:09;;;;;;;10.98;7.10;;;19.10;99.90;;;;;;4935087;29;20074;-83
2022/06/16 05:33:42;;;;;;;9.27;6.53;;;19.20;99.90;;;;;;4933908;29;20032;-82
2022/06/16 05:36:28;;;;;;;10.27;6.80;;;19.40;99.90;;;;;;4942681;29;20040;-82
2022/06/16 05:39:12;;;;;;;7.63;5.93;;;19.90;99.90;;;;;;4939018;29;20032;-82
2022/06/16 05:42:04;;;;;;;9.48;5.88;;;20.20;99.90;;;;;;4932299;29;20527;-82
2022/06/16 05:45:03;;;;;;;10.13;6.30;;;20.50;99.90;;;;;;4911070;29;20071;-83
2022/06/16 05:48:08;;;;;;;15.85;6.88;;;20.90;99.90;;;;;;4919114;29;20056;-83
2022/06/16 05:50:36;;;;;;;8.27;5.45;;;21.10;99.90;;;;;;4926994;29;20135;-82
2022/06/16 05:53:05;;;;;;;10.30;5.93;;;21.30;99.90;;;;;;4930516;29;20032;-81
2022/06/16 05:55:37;;;;;;;7.70;6.47;;;21.30;99.90;;;;;;4930804;29;20024;-82
2022/06/16 05:58:04;;;;;;;11.48;5.68;;;21.40;99.90;;;;;;4930489;29;20408;-82
2022/06/16 06:00:38;;;;;;;14.25;5.68;;;21.50;99.90;;;;;;4930987;29;20160;-82
2022/06/16 06:03:09;;;;;;;19.05;6.65;;;21.70;99.90;;;;;;4932336;29;20180;-82
2022/06/16 06:05:39;;;;;;;7.05;5.82;;;21.70;99.90;;;;;;4931632;29;20084;-82
2022/06/16 06:16:37;;;;;;;9.93;5.22;;;22.20;99.90;;;;;;4951311;28;20109;-82
2022/06/16 06:22:11;;;;;;;11.15;5.53;;;22.20;99.90;;;;;;4937287;29;20024;-83
2022/06/16 06:24:41;;;;;;;13.80;6.30;;;22.40;99.90;;;;;;4932667;29;20032;-83
2022/06/16 06:27:32;;;;;;;9.18;5.80;;;22.40;99.90;;;;;;4932417;29;20023;-83
2022/06/16 06:29:58;;;;;;;12.73;6.47;;;22.40;99.90;;;;;;4933308;29;20392;-83
2022/06/16 06:32:26;;;;;;;19.00;5.93;;;22.60;99.90;;;;;;4915060;29;20077;-83
2022/06/16 06:34:53;;;;;;;12.23;6.07;;;22.70;99.90;;;;;;4943553;29;20039;-83
2022/06/16 06:37:22;;;;;;;12.23;6.05;;;22.70;99.90;;;;;;4943188;29;20039;-81
2022/06/16 06:39:49;;;;;;;10.68;5.50;;;22.70;99.90;;;;;;4949379;29;20496;-82
2022/06/16 06:42:15;;;;;;;12.07;6.35;;;22.70;99.90;;;;;;4945735;29;20413;-82
2022/06/16 06:44:42;;;;;;;14.27;5.90;;;22.70;99.90;;;;;;4945017;29;20460;-83
2022/06/16 06:47:15;;;;;;;15.35;6.28;;;22.70;99.90;;;;;;4948587;29;20043;-82
2022/06/16 06:49:40;;;;;;;14.35;6.60;;;22.80;99.90;;;;;;4950351;29;20039;-83
2022/06/16 06:52:06;;;;;;;11.95;6.10;;;22.80;99.90;;;;;;4943366;29;20042;-83
2022/06/16 06:54:32;;;;;;;13.43;6.80;;;22.80;99.90;;;;;;4948014;29;20024;-82
2022/06/16 06:56:59;;;;;;;12.32;6.68;;;22.80;99.90;;;;;;4951846;29;20439;-83
2022/06/16 06:59:25;;;;;;;13.57;6.72;;;22.80;99.90;;;;;;4965004;29;20034;-82
2022/06/16 07:01:51;;;;;;;17.63;6.22;;;23.00;99.90;;;;;;4957417;29;20028;-82
2022/06/16 07:04:18;;;;;;;14.00;6.97;;;23.00;99.90;;;;;;4941955;29;20036;-82
2022/06/16 07:06:46;;;;;;;14.32;7.85;;;23.00;99.90;;;;;;4927287;29;20275;-83
2022/06/16 07:09:13;;;;;;;18.70;7.75;;;23.00;99.90;;;;;;4927567;29;20051;-83
2022/06/16 07:11:41;;;;;;;14.50;7.18;;;23.10;99.90;;;;;;4932093;29;20016;-82
2022/06/16 07:14:07;;;;;;;15.63;7.70;;;23.10;99.90;;;;;;4931618;29;20047;-85
2022/06/16 07:16:33;;;;;;;14.38;7.82;;;23.20;99.90;;;;;;4930118;29;20076;-83
2022/06/16 07:18:59;;;;;;;17.58;8.50;;;23.30;99.90;;;;;;4933001;29;20448;-83
2022/06/16 07:21:25;;;;;;;17.98;8.35;;;23.30;99.90;;;;;;4933889;29;20063;-84
2022/06/16 07:23:51;;;;;;;16.27;8.10;;;23.40;99.90;;;;;;4934749;29;20028;-84
2022/06/16 07:26:18;;;;;;;16.55;8.93;;;23.40;99.90;;;;;;4935870;29;20023;-84
2022/06/16 07:28:44;;;;;;;20.20;8.77;;;23.40;99.90;;;;;;4936284;29;20372;-83
2022/06/16 07:31:10;;;;;;;17.40;8.15;;;23.50;99.90;;;;;;4940217;29;20031;-84
2022/06/16 07:33:35;;;;;;;16.80;8.13;;;23.50;99.90;;;;;;4939305;29;20095;-81
2022/06/16 07:36:01;;;;;;;15.75;7.97;;;23.50;99.90;;;;;;4939291;29;20024;-83
2022/06/16 07:38:28;;;;;;;14.52;7.50;;;23.50;99.90;;;;;;4935916;29;20043;-84
2022/06/16 07:41:30;;;;;;;14.20;6.75;;;23.40;99.90;;;;;;4930954;29;20400;-83
2022/06/16 07:43:39;;;;;;;15.43;7.28;;;23.40;99.90;;;;;;4934638;29;20035;-84
2022/06/16 07:46:05;;;;;;;13.07;6.85;;;23.60;99.90;;;;;;4935609;29;20015;-84
2022/06/16 07:48:31;;;;;;;14.40;7.18;;;23.80;99.90;;;;;;4936867;29;20138;-85
2022/06/16 07:50:57;;;;;;;11.80;6.93;;;23.90;99.90;;;;;;4932424;29;20016;-84
2022/06/16 07:53:22;;;;;;;12.50;7.38;;;24.00;99.90;;;;;;4930830;29;20020;-84
2022/06/16 07:55:48;;;;;;;8.68;6.68;;;24.20;99.90;;;;;;4938434;29;20051;-83
2022/06/16 07:58:14;;;;;;;13.23;6.93;;;24.30;99.90;;;;;;4941659;29;20512;-83
2022/06/16 08:00:40;;;;;;;13.75;6.82;;;24.30;99.90;;;;;;4940046;29;20043;-83
2022/06/16 08:03:05;;;;;;;11.02;6.82;;;24.40;99.90;;;;;;4932699;29;20036;-83
2022/06/16 08:05:32;;;;;;;11.02;6.68;;;24.40;99.90;;;;;;4931698;29;20019;-84
2022/06/16 08:07:58;;;;;;;12.27;6.60;;;24.50;99.90;;;;;;4935032;29;20031;-84
2022/06/16 08:10:26;;;;;;;13.07;6.60;;;24.60;99.90;;;;;;4931580;29;20052;-83
2022/06/16 08:12:53;;;;;;;10.63;6.22;;;24.60;99.90;;;;;;4932419;29;20058;-83
2022/06/16 08:15:19;;;;;;;10.75;6.35;;;24.80;99.90;;;;;;4933496;29;20016;-84
2022/06/16 08:17:48;;;;;;;11.13;6.30;;;24.80;99.90;;;;;;4932176;29;20054;-85
2022/06/16 08:20:15;;;;;;;12.70;6.15;;;24.90;99.90;;;;;;4932440;29;20030;-83
2022/06/16 08:22:42;;;;;;;11.65;6.30;;;25.00;99.90;;;;;;4932535;29;20032;-83
2022/06/16 08:25:12;;;;;;;11.75;5.75;;;25.00;99.90;;;;;;4935098;29;20533;-83
2022/06/16 08:27:41;;;;;;;9.63;5.82;;;25.00;99.90;;;;;;4933165;29;20052;-83
2022/06/16 08:30:11;;;;;;;10.48;5.85;;;25.00;99.90;;;;;;4930566;29;20023;-82
2022/06/16 08:32:37;;;;;;;11.75;5.97;;;25.10;99.90;;;;;;4932219;29;20023;-83
2022/06/16 08:35:05;;;;;;;10.13;5.65;;;25.10;99.90;;;;;;4933574;29;20069;-85
2022/06/16 08:37:30;;;;;;;8.93;5.47;;;25.10;99.90;;;;;;4929198;29;20034;-83
2022/06/16 08:39:56;;;;;;;11.98;6.65;;;25.20;99.90;;;;;;4931126;29;20098;-83
2022/06/16 08:42:27;;;;;;;13.80;5.93;;;25.30;99.90;;;;;;4930564;29;20535;-81
2022/06/16 08:44:52;;;;;;;10.18;4.63;;;25.40;99.90;;;;;;4944187;29;20016;-80
2022/06/16 08:47:30;;;;;;;7.95;4.88;;;25.40;99.90;;;;;;4944271;29;20039;-81
2022/06/16 08:50:23;;;;;;;8.27;4.53;;;25.40;99.90;;;;;;4938495;29;20052;-80
2022/06/16 08:53:13;;;;;;;7.78;4.72;;;25.30;99.90;;;;;;4939346;29;20056;-82
2022/06/16 08:56:01;;;;;;;8.98;4.50;;;25.30;99.90;;;;;;4938676;29;20032;-83
2022/06/16 08:58:50;;;;;;;13.82;5.38;;;25.40;99.90;;;;;;4936467;29;20039;-82
2022/06/16 09:01:22;;;;;;;10.55;5.88;;;25.60;99.90;;;;;;4937082;29;20047;-83
2022/06/16 09:04:00;;;;;;;13.68;5.60;;;25.80;99.90;;;;;;4948928;28;20047;-83
2022/06/16 09:06:34;;;;;;;8.38;5.40;;;26.10;99.90;;;;;;4945819;29;20647;-84
2022/06/16 09:10:14;;;;;;;9.38;5.25;;;26.20;99.90;;;;;;4943958;29;20028;-84
2022/06/16 09:12:30;;;;;;;7.22;4.40;;;26.20;99.90;;;;;;4956029;29;20024;-84
2022/06/16 09:15:12;;;;;;;9.57;4.60;;;26.00;99.90;;;;;;4918531;28;20050;-83
2022/06/16 09:55:06;;;;;;;6.75;3.97;;;28.00;97.10;;;;;;4402775;23;20107;-88
2022/06/16 10:02:35;;;;;;;;;;;;;;;;;;;;;
2022/06/16 10:05:37;;;;;;;10.20;4.28;;;28.90;96.00;;;;;;4904174;29;20049;-90
2022/06/16 10:09:11;;;;;;;;;;;;;;;;;;;;;
2022/06/16 10:19:27;;;;;;;8.77;4.35;;;32.00;90.70;;;;;;4894889;29;20050;-90
2022/06/16 10:22:06;;;;;;;64.93;42.83;;;32.30;89.90;;;;;;4934000;29;20043;-89
2022/06/16 10:25:28;;;;;;;8.38;5.53;;;32.80;88.40;;;;;;4938893;29;20068;-90
2022/06/16 10:28:40;;;;;;;32.90;18.45;;;33.00;86.80;;;;;;4923022;29;20108;-89
2022/06/16 10:31:58;;;;;;;;;;;;;;;;;;;;;
2022/06/16 10:35:10;;;;;;;8.60;5.00;;;34.10;83.20;;;;;;4941569;29;20028;-90
2022/06/16 10:38:04;;;;;;;5.25;3.50;;;35.40;79.30;;;;;;4922136;29;20043;-89
2022/06/16 10:40:46;;;;;;;9.43;4.80;;;35.60;77.40;;;;;;4931996;29;20056;-90
2022/06/16 10:43:24;;;;;;;6.88;3.50;;;36.10;75.60;;;;;;4934006;29;20044;-91
2022/06/16 10:46:03;;;;;;;5.60;3.33;;;37.10;72.80;;;;;;4935595;29;20043;-90
2022/06/16 10:48:37;;;;;;;7.60;3.33;;;37.00;72.50;;;;;;4933744;29;20040;-91
2022/06/16 10:51:20;;;;;;;5.10;3.30;;;37.70;70.90;;;;;;4935283;29;20104;-91
2022/06/16 10:54:13;;;;;;;8.88;4.20;;;37.90;69.00;;;;;;4934098;29;20124;-90
2022/06/16 10:57:51;;;;;;;;;;;;;;;;;;;;;
2022/06/16 11:00:25;;;;;;;5.70;3.72;;;38.70;65.80;;;;;;4925937;29;20058;-90
2022/06/16 11:03:10;;;;;;;8.32;3.17;;;38.50;65.20;;;;;;4937039;29;20511;-90
2022/06/16 11:05:57;;;;;;;7.30;3.70;;;38.80;64.30;;;;;;4941847;29;20031;-91
2022/06/16 11:11:00;;;;;;;4.95;3.20;;;39.50;63.20;;;;;;4941600;27;20044;-88
2022/06/16 11:13:31;;;;;;;5.97;3.53;;;38.90;64.20;;;;;;4925577;29;20058;-89
2022/06/16 11:15:57;;;;;;;8.73;3.63;;;39.00;63.90;;;;;;4941884;29;20087;-88
2022/06/16 11:18:28;;;;;;;4.57;3.03;;;38.20;63.20;;;;;;4941913;29;20076;-89
2022/06/16 11:21:00;;;;;;;5.78;3.78;;;38.20;63.50;;;;;;4926007;29;20051;-89
2022/06/16 11:23:41;;;;;;;7.00;4.75;;;37.80;64.50;;;;;;4941086;29;20054;-90
2022/06/16 11:26:31;;;;;;;7.80;3.92;;;37.30;65.00;;;;;;4941904;29;20058;-90
2022/06/16 11:29:15;;;;;;;7.10;3.40;;;37.40;65.10;;;;;;4938748;29;20047;-90
2022/06/16 11:31:46;;;;;;;8.65;5.32;;;37.40;64.50;;;;;;4936479;29;20029;-91
2022/06/16 11:34:27;;;;;;;6.78;3.88;;;37.90;64.50;;;;;;4927122;29;20032;-90
2022/06/16 11:37:13;;;;;;;5.82;3.10;;;38.60;60.80;;;;;;4909393;29;20025;-89
2022/06/16 11:39:52;;;;;;;9.52;4.30;;;38.40;61.50;;;;;;4925000;29;20072;-89
2022/06/16 11:42:27;;;;;;;10.65;5.05;;;38.90;60.90;;;;;;4925641;29;20036;-90
2022/06/16 11:45:11;;;;;;;7.07;3.42;;;39.60;60.90;;;;;;4931040;29;20075;-92
2022/06/16 11:47:55;;;;;;;9.57;4.07;;;39.90;60.90;;;;;;4941574;29;20052;-90
2022/06/16 11:50:42;;;;;;;;;;;40.70;60.20;;;;;;4928426;29;20028;-90
2022/06/16 11:53:27;;;;;;;5.32;3.55;;;41.00;58.80;;;;;;4941035;29;19899;-89
2022/06/16 11:56:13;;;;;;;9.68;3.40;;;41.70;58.60;;;;;;4935394;29;20065;-90
2022/06/16 11:59:18;;;;;;;4.55;3.00;;;40.80;57.20;;;;;;4921675;29;20064;-90
2022/06/16 12:04:57;;;;;;;12.18;3.90;;;40.70;58.10;;;;;;4598607;26;20040;-89
2022/06/16 12:07:22;;;;;;;9.80;3.17;;;41.20;57.70;;;;;;4959388;28;20051;-90
2022/06/16 12:10:01;;;;;;;4.68;3.00;;;41.90;57.10;;;;;;4957329;29;20031;-90
2022/06/16 12:12:56;;;;;;;7.95;2.92;;;42.30;56.90;;;;;;4955717;29;20050;-91
2022/06/16 12:15:52;;;;;;;4.82;3.08;;;42.50;54.50;;;;;;4954146;29;20024;-90
2022/06/16 12:18:46;;;;;;;9.07;3.88;;;41.50;56.00;;;;;;4957595;28;20026;-90
2022/06/16 12:21:13;;;;;;;;;;;42.40;55.90;;;;;;4940068;29;20032;-90
2022/06/16 12:24:03;;;;;;;6.57;3.38;;;43.00;54.50;;;;;;4951476;28;20279;-89
2022/06/16 12:27:01;;;;;;;6.57;3.20;;;42.40;55.30;;;;;;4947266;29;20031;-89
2022/06/16 12:29:35;;;;;;;8.48;3.63;;;42.00;54.40;;;;;;4949990;29;20035;-90
2022/06/16 12:32:13;;;;;;;5.97;3.28;;;42.50;54.20;;;;;;4951017;29;20039;-91
2022/06/16 12:34:48;;;;;;;6.28;4.07;;;42.90;54.20;;;;;;4955041;28;20044;-91
2022/06/16 12:37:19;;;;;;;5.53;3.08;;;42.60;52.20;;;;;;4947428;29;20044;-90
2022/06/16 12:40:01;;;;;;;5.80;3.50;;;42.30;53.10;;;;;;4954289;28;20027;-91
2022/06/16 12:42:42;;;;;;;9.68;3.30;;;42.00;53.70;;;;;;4959303;28;20031;-90
2022/06/16 12:45:17;;;;;;;7.80;2.95;;;42.20;53.70;;;;;;4958636;28;20044;-90
2022/06/16 12:47:55;;;;;;;6.15;3.65;;;42.40;53.80;;;;;;4956814;28;20028;-90
2022/06/16 12:50:26;;;;;;;4.50;3.15;;;42.80;53.20;;;;;;4957666;28;20047;-90
2022/06/16 12:53:04;;;;;;;6.95;3.05;;;42.10;53.70;;;;;;4951967;29;20015;-89
2022/06/16 12:55:45;;;;;;;9.80;3.80;;;42.00;53.80;;;;;;4951448;29;20447;-91
2022/06/16 12:58:24;;;;;;;5.75;3.20;;;41.00;54.00;;;;;;4949830;29;20036;-90
2022/06/16 13:00:54;;;;;;;6.43;2.95;;;40.40;55.10;;;;;;4949463;29;20027;-91
2022/06/16 13:03:30;;;;;;;5.22;3.13;;;39.60;55.30;;;;;;4933974;29;20399;-90
2022/06/16 13:05:57;;;;;;;6.32;3.10;;;39.20;55.60;;;;;;4952332;29;20015;-90
2022/06/16 13:08:26;;;;;;;4.25;2.95;;;38.20;56.80;;;;;;4951222;29;20028;-92
2022/06/16 13:10:59;;;;;;;6.07;3.50;;;37.50;57.70;;;;;;4941717;28;20020;-90
2022/06/16 13:13:30;;;;;;;7.05;3.63;;;36.60;58.30;;;;;;4958221;28;20042;-90
2022/06/16 13:16:00;;;;;;;5.63;3.17;;;35.70;59.60;;;;;;4969583;23;20065;-90
2022/06/16 13:18:40;;;;;;;10.48;3.55;;;35.70;60.00;;;;;;4943270;28;20028;-89
2022/06/16 13:21:07;;;;;;;6.18;3.95;;;35.40;60.70;;;;;;4943591;28;20020;-90
2022/06/16 13:23:35;;;;;;;4.28;3.47;;;35.20;61.00;;;;;;4980527;23;20032;-89
2022/06/16 13:26:22;;;;;;;6.97;3.38;;;35.70;60.60;;;;;;4954432;29;20088;-90
2022/06/16 13:29:06;;;;;;;4.57;3.28;;;35.40;60.80;;;;;;4937660;29;20059;-90
2022/06/16 13:31:42;;;;;;;5.78;3.10;;;35.20;61.00;;;;;;4957955;28;20040;-89
2022/06/16 13:34:11;;;;;;;5.18;2.97;;;34.90;59.10;;;;;;4961895;28;20062;-92
2022/06/16 13:36:36;;;;;;;4.82;3.10;;;34.40;60.50;;;;;;4962731;28;20019;-90
2022/06/16 13:39:07;;;;;;;4.07;2.90;;;33.90;60.50;;;;;;4962538;28;20020;-92
2022/06/16 13:41:46;;;;;;;4.57;3.30;;;33.70;60.40;;;;;;4961817;28;20028;-92
2022/06/16 13:44:29;;;;;;;5.60;3.10;;;33.20;61.10;;;;;;4962257;28;20024;-91
2022/06/16 13:47:31;;;;;;;6.47;3.90;;;32.80;62.40;;;;;;4945594;28;20071;-91
2022/06/16 13:50:42;;;;;;;10.35;6.40;;;32.40;63.50;;;;;;4943104;29;20038;-92
2022/06/16 13:54:03;;;;;;;6.30;3.20;;;31.80;63.90;;;;;;4942825;28;20033;-91
2022/06/16 13:56:55;;;;;;;10.85;3.55;;;31.40;64.50;;;;;;4909934;29;20028;-90
2022/06/16 14:05:54;;;;;;;6.75;3.58;;;31.10;66.70;;;;;;4607258;26;20050;-90
2022/06/16 14:08:24;;;;;;;4.40;3.63;;;31.00;66.20;;;;;;4946620;28;20039;-88
2022/06/16 14:11:14;;;;;;;8.63;3.53;;;30.60;66.00;;;;;;4943136;29;20024;-90
2022/06/16 14:13:46;;;;;;;6.05;3.40;;;30.40;67.50;;;;;;4942769;29;20036;-90
2022/06/16 14:16:12;;;;;;;4.90;3.50;;;30.00;66.60;;;;;;4957972;28;20216;-89
2022/06/16 14:18:59;;;;;;;9.02;4.00;;;29.70;67.60;;;;;;4960863;23;20037;-89
2022/06/16 14:21:50;;;;;;;8.07;3.50;;;29.60;67.70;;;;;;4922530;29;20044;-88
2022/06/16 14:24:35;;;;;;;7.18;3.63;;;29.40;68.50;;;;;;4939266;29;20051;-89
2022/06/16 14:27:01;;;;;;;;;;;29.30;69.00;;;;;;4945656;28;20047;-89
2022/06/16 14:29:33;;;;;;;7.97;3.97;;;29.20;69.60;;;;;;4959163;28;19899;-89
2022/06/16 14:32:09;;;;;;;9.82;3.75;;;29.10;70.00;;;;;;4959981;28;20039;-88
2022/06/16 14:34:43;;;;;;;6.90;4.15;;;28.90;70.50;;;;;;4960750;28;20054;-89
2022/06/16 14:37:16;;;;;;;6.47;3.90;;;28.80;71.30;;;;;;4960125;28;20020;-89
2022/06/16 14:39:50;;;;;;;7.43;4.70;;;28.60;71.90;;;;;;4959720;28;20063;-88
2022/06/16 14:42:20;;;;;;;10.65;4.03;;;28.60;72.90;;;;;;4944190;28;20015;-88
2022/06/16 14:44:55;;;;;;;6.25;4.20;;;28.50;73.70;;;;;;4959615;28;20016;-88
2022/06/16 14:47:51;;;;;;;9.00;4.82;;;28.30;74.60;;;;;;5046357;23;5098753;-91
2022/06/16 14:50:25;;;;;;;13.18;4.70;;;27.90;78.00;;;;;;4936450;29;20036;-89